NCAR-RAP Real-Time Weather Data

Output produced by METARs form (23 July 2019  23:12 UTC)
found at http://weather.rap.ucar.edu/surface/
 
KMOB 232256Z 01009KT 10SM BKN038 OVC050 27/23 A2990 RMK AO2 SLP121 CB DSNT ALQDS T02720233